Time;durP1;ratioP1;P1;durP2;ratioP2;P2;SDS_P1;SDS_P2;PMS_P1;PMS_P2;Temp;Humidity;BMP_temperature;BMP_pressure;BME280_temperature;BME280_humidity;BME280_pressure;Samples;Min_cycle;Max_cycle;Signal;HPM_P1;HPM_P2
2021/11/27 00:00:29;;;;;;;1.33;0.90;;;20.20;55.00;;;;;;6214526;23;20047;-70
2021/11/27 00:02:55;;;;;;;0.98;0.65;;;20.20;55.00;;;;;;6189171;23;20001;-70
2021/11/27 00:05:22;;;;;;;0.80;0.60;;;20.20;55.00;;;;;;6188506;23;20456;-70
2021/11/27 00:07:47;;;;;;;2.05;0.73;;;20.20;55.00;;;;;;6215231;23;20000;-70
2021/11/27 00:10:15;;;;;;;1.42;0.88;;;20.20;55.00;;;;;;6215352;23;20011;-70
2021/11/27 00:12:41;;;;;;;1.52;0.75;;;20.20;55.00;;;;;;6164453;23;20008;-70
2021/11/27 00:15:07;;;;;;;1.05;0.75;;;20.20;55.00;;;;;;6188658;23;20005;-70
2021/11/27 00:17:34;;;;;;;2.20;1.00;;;20.20;55.00;;;;;;6163909;23;20007;-70
2021/11/27 00:20:00;;;;;;;1.10;0.65;;;20.20;55.00;;;;;;6189094;23;19997;-70
2021/11/27 00:22:26;;;;;;;1.20;0.60;;;20.20;55.00;;;;;;6214566;23;20300;-70
2021/11/27 00:24:51;;;;;;;1.45;0.90;;;20.20;55.00;;;;;;6215249;23;20320;-70
2021/11/27 00:27:17;;;;;;;1.88;0.50;;;20.20;55.00;;;;;;6188526;23;20013;-70
2021/11/27 00:29:42;;;;;;;2.35;0.85;;;20.20;55.00;;;;;;6215189;23;20005;-70
2021/11/27 00:32:08;;;;;;;1.98;0.60;;;20.20;55.00;;;;;;6163852;23;20012;-70
2021/11/27 00:34:34;;;;;;;2.17;0.90;;;20.20;55.00;;;;;;6188466;23;20001;-70
2021/11/27 00:36:59;;;;;;;1.33;0.63;;;20.20;55.00;;;;;;6187985;23;20000;-70
2021/11/27 00:39:25;;;;;;;2.17;0.77;;;20.20;55.00;;;;;;6215143;23;19996;-70
2021/11/27 00:41:50;;;;;;;1.30;0.80;;;20.20;55.00;;;;;;6215165;23;20658;-70
2021/11/27 00:44:16;;;;;;;2.63;0.70;;;20.20;55.00;;;;;;6188334;23;20003;-70
2021/11/27 00:46:42;;;;;;;1.48;0.80;;;20.20;55.00;;;;;;6189129;23;20001;-70
2021/11/27 00:49:08;;;;;;;2.00;0.75;;;20.20;55.10;;;;;;6214989;23;20005;-70
2021/11/27 00:51:34;;;;;;;1.80;0.77;;;20.20;55.00;;;;;;6188389;23;20004;-70
2021/11/27 00:53:59;;;;;;;1.25;0.60;;;20.20;55.00;;;;;;6163930;23;20294;-70
2021/11/27 00:56:25;;;;;;;1.08;0.70;;;20.20;55.00;;;;;;6188508;23;20001;-70
2021/11/27 00:58:51;;;;;;;2.95;0.98;;;20.20;55.00;;;;;;6164094;23;20008;-70
2021/11/27 01:01:22;;;;;;;3.90;0.90;;;20.20;55.00;;;;;;6188513;23;20004;-70
2021/11/27 01:03:48;;;;;;;1.92;0.75;;;20.20;54.90;;;;;;6165005;23;20072;-70
2021/11/27 01:06:14;;;;;;;1.67;0.82;;;20.20;55.00;;;;;;6214696;23;20366;-70
2021/11/27 01:08:40;;;;;;;1.25;0.85;;;20.20;55.00;;;;;;6188849;23;20005;-70
2021/11/27 01:11:09;;;;;;;1.92;0.80;;;20.20;55.00;;;;;;6214855;23;20494;-70
2021/11/27 01:13:35;;;;;;;2.72;0.75;;;20.20;55.00;;;;;;6188664;23;20067;-70
2021/11/27 01:16:01;;;;;;;1.25;0.60;;;20.20;55.00;;;;;;6164134;23;20048;-70
2021/11/27 01:18:27;;;;;;;1.33;0.55;;;20.20;55.00;;;;;;6188582;23;20069;-70
2021/11/27 01:20:55;;;;;;;1.35;0.80;;;20.20;55.00;;;;;;6187929;23;20077;-70
2021/11/27 01:23:21;;;;;;;1.13;0.68;;;20.20;55.00;;;;;;6215004;23;20001;-70
2021/11/27 01:25:47;;;;;;;1.73;0.52;;;20.20;55.00;;;;;;6188478;23;20059;-70
2021/11/27 01:28:15;;;;;;;1.23;0.70;;;20.20;55.00;;;;;;6214951;23;20436;-70
2021/11/27 01:30:44;;;;;;;0.95;0.52;;;20.20;55.20;;;;;;6189276;23;20020;-70
2021/11/27 01:33:10;;;;;;;0.93;0.63;;;20.20;54.90;;;;;;6164500;23;20036;-70
2021/11/27 01:35:36;;;;;;;0.88;0.63;;;20.20;55.00;;;;;;6188144;23;20042;-70
2021/11/27 01:38:02;;;;;;;1.20;0.73;;;20.20;54.90;;;;;;6188346;23;20467;-70
2021/11/27 01:40:28;;;;;;;1.77;0.63;;;20.20;55.00;;;;;;6188354;23;20001;-70
2021/11/27 01:42:53;;;;;;;1.35;0.70;;;20.20;55.00;;;;;;6188409;23;20019;-70
2021/11/27 01:45:19;;;;;;;1.63;0.80;;;20.20;55.00;;;;;;6189958;23;20028;-70
2021/11/27 01:47:56;;;;;;;1.02;0.60;;;20.20;55.00;;;;;;6190616;23;20074;-70
2021/11/27 01:50:22;;;;;;;2.80;1.15;;;20.20;55.00;;;;;;6192169;23;20020;-70
2021/11/27 01:52:48;;;;;;;1.05;0.50;;;20.20;56.00;;;;;;6190451;23;20008;-70
2021/11/27 01:55:13;;;;;;;1.25;0.57;;;20.20;55.00;;;;;;6190357;23;20001;-70
2021/11/27 01:57:41;;;;;;;1.30;0.70;;;20.20;55.00;;;;;;6190329;23;20005;-70
2021/11/27 02:00:08;;;;;;;1.50;0.90;;;20.20;55.00;;;;;;6216991;23;20000;-70
2021/11/27 02:02:33;;;;;;;3.03;0.80;;;20.20;55.00;;;;;;6216354;23;20000;-70
2021/11/27 02:04:59;;;;;;;0.88;0.52;;;20.20;55.00;;;;;;6216431;23;20481;-70
2021/11/27 02:07:24;;;;;;;1.27;0.57;;;20.20;55.00;;;;;;6216495;23;20076;-70
2021/11/27 02:09:50;;;;;;;3.40;0.60;;;20.20;55.00;;;;;;6216686;23;20050;-70
2021/11/27 02:12:16;;;;;;;1.58;0.68;;;20.20;55.00;;;;;;6189718;23;20019;-70
2021/11/27 02:14:42;;;;;;;2.20;0.82;;;20.20;55.00;;;;;;6216780;23;20352;-70
2021/11/27 02:17:09;;;;;;;1.67;0.70;;;20.20;55.00;;;;;;6190038;23;20447;-70
2021/11/27 02:19:35;;;;;;;1.70;0.90;;;20.20;55.00;;;;;;6216296;23;20009;-70
2021/11/27 02:22:01;;;;;;;1.17;0.60;;;20.30;55.10;;;;;;6190144;23;20028;-70
2021/11/27 02:24:27;;;;;;;1.05;0.60;;;20.20;55.10;;;;;;6189828;23;20000;-70
2021/11/27 02:26:54;;;;;;;1.55;0.88;;;20.20;55.10;;;;;;6216521;23;20016;-70
2021/11/27 02:29:25;;;;;;;1.80;0.82;;;20.20;55.10;;;;;;6190325;23;20079;-70
2021/11/27 02:31:52;;;;;;;1.15;0.70;;;20.30;55.20;;;;;;6165380;23;20005;-70
2021/11/27 02:34:17;;;;;;;1.23;0.60;;;20.20;55.20;;;;;;6164860;23;20008;-70
2021/11/27 02:36:48;;;;;;;2.13;0.80;;;20.30;55.20;;;;;;6190000;23;20000;-69
2021/11/27 02:39:14;;;;;;;1.48;0.80;;;20.30;55.20;;;;;;6189942;23;20000;-70
2021/11/27 02:41:40;;;;;;;2.03;0.60;;;20.30;55.20;;;;;;6216392;23;20044;-70
2021/11/27 02:44:08;;;;;;;0.60;0.57;;;20.20;55.20;;;;;;6189949;23;20004;-70
2021/11/27 02:46:34;;;;;;;1.13;0.63;;;20.30;55.30;;;;;;6165910;23;20012;-69
2021/11/27 02:49:00;;;;;;;2.35;0.60;;;20.30;55.30;;;;;;6189891;23;20005;-69
2021/11/27 02:51:26;;;;;;;1.20;0.60;;;20.30;55.30;;;;;;6189651;23;20079;-69
2021/11/27 02:53:51;;;;;;;2.10;0.70;;;20.30;55.30;;;;;;6189938;23;20030;-69
2021/11/27 02:56:17;;;;;;;2.03;0.90;;;20.30;55.30;;;;;;6216080;23;20455;-70
2021/11/27 02:58:42;;;;;;;2.05;0.60;;;20.30;55.30;;;;;;6216301;23;20001;-70
2021/11/27 03:01:09;;;;;;;1.33;0.90;;;20.30;55.30;;;;;;6216435;23;20054;-70
2021/11/27 03:03:35;;;;;;;2.10;0.80;;;20.30;55.30;;;;;;6189099;23;20004;-70
2021/11/27 03:06:02;;;;;;;1.27;0.70;;;20.30;55.40;;;;;;6216348;23;20415;-70
2021/11/27 03:08:27;;;;;;;1.55;0.80;;;20.30;55.40;;;;;;6216023;23;20000;-70
2021/11/27 03:10:53;;;;;;;3.15;0.80;;;20.30;55.30;;;;;;6189986;23;20000;-70
2021/11/27 03:13:25;;;;;;;1.30;0.80;;;20.30;55.30;;;;;;6216055;23;20808;-70
2021/11/27 03:15:51;;;;;;;;;;;20.30;55.30;;;;;;6165541;23;20526;-70
2021/11/27 03:18:16;;;;;;;1.00;0.60;;;20.20;55.30;;;;;;6215635;23;19907;-70
2021/11/27 03:20:42;;;;;;;2.05;0.93;;;20.20;55.60;;;;;;6216000;23;20054;-70
2021/11/27 03:23:08;;;;;;;1.13;0.70;;;20.30;55.60;;;;;;6215962;23;20024;-70
2021/11/27 03:25:33;;;;;;;2.72;0.70;;;20.30;55.60;;;;;;6164286;23;19996;-70
2021/11/27 03:27:59;;;;;;;3.22;0.80;;;20.30;55.60;;;;;;6215945;23;20016;-70
2021/11/27 03:30:25;;;;;;;1.55;0.98;;;20.30;55.50;;;;;;6215680;23;20092;-70
2021/11/27 03:32:50;;;;;;;1.25;0.68;;;20.30;55.50;;;;;;6189142;23;20005;-70
2021/11/27 03:35:16;;;;;;;1.30;0.73;;;20.30;55.50;;;;;;6215804;23;20015;-70
2021/11/27 03:37:42;;;;;;;1.33;0.68;;;20.30;55.50;;;;;;6189079;23;20363;-70
2021/11/27 03:40:08;;;;;;;2.20;0.73;;;20.30;55.50;;;;;;6216115;23;20001;-70
2021/11/27 03:42:33;;;;;;;2.25;0.70;;;20.30;55.50;;;;;;6164084;23;20015;-70
2021/11/27 03:44:59;;;;;;;1.85;0.85;;;20.30;55.50;;;;;;6188669;23;19997;-70
2021/11/27 03:47:25;;;;;;;1.67;0.68;;;20.30;55.50;;;;;;6215136;23;20000;-70
2021/11/27 03:49:52;;;;;;;1.05;0.50;;;20.30;55.50;;;;;;6164355;23;20011;-70
2021/11/27 03:52:17;;;;;;;1.23;0.50;;;20.30;55.40;;;;;;6189522;23;20000;-70
2021/11/27 03:54:43;;;;;;;0.90;0.50;;;20.30;55.40;;;;;;6189103;23;20007;-70
2021/11/27 03:57:09;;;;;;;1.15;0.60;;;20.30;55.40;;;;;;6189208;23;20063;-70
2021/11/27 03:59:36;;;;;;;1.25;0.65;;;20.30;55.50;;;;;;6215195;23;20082;-70
2021/11/27 04:02:02;;;;;;;2.95;0.80;;;20.30;55.40;;;;;;6189554;23;19997;-70
2021/11/27 04:04:27;;;;;;;1.50;0.52;;;20.30;55.50;;;;;;6188773;23;20000;-70
2021/11/27 04:06:53;;;;;;;1.55;0.70;;;20.30;55.50;;;;;;6164283;23;20012;-70
2021/11/27 04:09:18;;;;;;;0.88;0.60;;;20.30;55.50;;;;;;6164348;23;20001;-70
2021/11/27 04:11:44;;;;;;;1.38;0.68;;;20.30;55.50;;;;;;6189142;23;20416;-70
2021/11/27 04:14:10;;;;;;;2.63;0.63;;;20.30;55.50;;;;;;6188587;23;20004;-70
2021/11/27 04:16:36;;;;;;;1.20;0.60;;;20.30;55.50;;;;;;6215366;23;20009;-70
2021/11/27 04:19:01;;;;;;;1.83;0.80;;;20.30;55.50;;;;;;6188769;23;20032;-70
2021/11/27 04:21:27;;;;;;;1.95;0.77;;;20.30;55.50;;;;;;6215319;23;20000;-70
2021/11/27 04:23:52;;;;;;;1.15;0.63;;;20.20;55.50;;;;;;6188957;23;20039;-70
2021/11/27 04:26:19;;;;;;;2.40;1.00;;;20.30;55.60;;;;;;6188708;23;20058;-70
2021/11/27 04:28:45;;;;;;;2.20;0.60;;;20.20;55.40;;;;;;6188716;23;20001;-70
2021/11/27 04:31:10;;;;;;;1.65;0.80;;;20.20;55.50;;;;;;6188798;23;20035;-70
2021/11/27 04:33:36;;;;;;;1.85;0.70;;;20.20;55.50;;;;;;6215107;23;20011;-70
2021/11/27 04:36:02;;;;;;;1.92;0.73;;;20.20;55.50;;;;;;6189065;23;20044;-70
2021/11/27 04:38:28;;;;;;;1.77;0.70;;;20.20;55.50;;;;;;6215021;23;20000;-69
2021/11/27 04:40:54;;;;;;;1.33;0.63;;;20.20;55.50;;;;;;6188932;23;20056;-70
2021/11/27 04:43:20;;;;;;;2.03;0.60;;;20.20;55.50;;;;;;6188390;23;20004;-70
2021/11/27 04:45:45;;;;;;;1.20;0.80;;;20.20;55.50;;;;;;6163630;23;20008;-69
2021/11/27 04:48:11;;;;;;;2.22;0.82;;;20.20;55.50;;;;;;6215263;23;20004;-69
2021/11/27 04:50:37;;;;;;;2.63;0.70;;;20.20;55.50;;;;;;6188749;23;20079;-69
2021/11/27 04:53:03;;;;;;;1.40;0.68;;;20.20;55.50;;;;;;6215287;23;20001;-69
2021/11/27 04:55:30;;;;;;;1.23;0.70;;;20.20;55.50;;;;;;6215173;23;20005;-70
2021/11/27 04:57:55;;;;;;;2.50;0.82;;;20.20;55.50;;;;;;6163446;23;20467;-69
2021/11/27 05:00:22;;;;;;;1.67;0.75;;;20.20;55.50;;;;;;6215350;23;19997;-70
2021/11/27 05:02:47;;;;;;;2.63;0.70;;;20.20;55.50;;;;;;6215120;23;20005;-70
2021/11/27 05:05:13;;;;;;;2.15;0.98;;;20.20;55.50;;;;;;6188841;23;20451;-70
2021/11/27 05:07:39;;;;;;;3.67;1.23;;;20.20;55.50;;;;;;6215139;23;20029;-70
2021/11/27 05:10:05;;;;;;;1.45;0.90;;;20.20;55.50;;;;;;6188757;23;20051;-70
2021/11/27 05:12:30;;;;;;;1.60;0.77;;;20.20;55.50;;;;;;6188242;23;20011;-70
2021/11/27 05:14:56;;;;;;;3.10;0.70;;;20.20;55.50;;;;;;6214643;23;20071;-71
2021/11/27 05:17:21;;;;;;;2.50;1.02;;;20.20;55.50;;;;;;6138819;23;20005;-70
2021/11/27 05:19:47;;;;;;;1.55;0.80;;;20.20;55.40;;;;;;6215839;23;19997;-70
2021/11/27 05:22:13;;;;;;;1.48;0.80;;;20.10;55.50;;;;;;6190437;23;20441;-70
2021/11/27 05:24:43;;;;;;;1.70;0.90;;;20.10;55.50;;;;;;6216736;23;20007;-70
2021/11/27 05:27:11;;;;;;;1.75;0.80;;;20.10;55.40;;;;;;6190958;23;20019;-70
2021/11/27 05:29:37;;;;;;;2.03;0.88;;;20.10;55.40;;;;;;6189927;23;20005;-70
2021/11/27 05:32:06;;;;;;;1.80;0.80;;;20.10;55.40;;;;;;6165662;23;20008;-69
2021/11/27 05:34:33;;;;;;;2.08;0.77;;;20.10;55.50;;;;;;6190736;23;20079;-70
2021/11/27 05:37:01;;;;;;;2.03;0.88;;;20.10;55.40;;;;;;6165517;23;20467;-70
2021/11/27 05:39:26;;;;;;;1.27;0.82;;;20.10;55.40;;;;;;6216686;23;20005;-70
2021/11/27 05:41:52;;;;;;;2.28;0.82;;;20.10;55.30;;;;;;6216121;23;20047;-70
2021/11/27 05:44:18;;;;;;;2.75;0.73;;;20.10;55.30;;;;;;6165086;23;19997;-69
2021/11/27 05:46:43;;;;;;;2.90;1.02;;;20.10;55.30;;;;;;6190074;23;20007;-70
2021/11/27 05:49:09;;;;;;;3.33;0.90;;;20.10;55.30;;;;;;6216865;23;20004;-70
2021/11/27 05:51:34;;;;;;;2.38;1.23;;;20.10;55.30;;;;;;6215672;23;20046;-70
2021/11/27 05:54:00;;;;;;;3.38;1.00;;;20.10;55.30;;;;;;6216416;23;20451;-70
2021/11/27 05:56:26;;;;;;;1.83;1.00;;;20.10;55.30;;;;;;6189016;23;20009;-70
2021/11/27 05:58:52;;;;;;;2.28;1.17;;;20.10;55.20;;;;;;6215835;23;20011;-70
2021/11/27 06:01:17;;;;;;;1.90;1.10;;;20.10;55.30;;;;;;6216145;23;20068;-70
2021/11/27 06:03:43;;;;;;;2.15;0.93;;;20.20;55.30;;;;;;6164568;23;20001;-70
2021/11/27 06:06:09;;;;;;;2.45;1.02;;;20.10;55.20;;;;;;6189736;23;20367;-70
2021/11/27 06:08:34;;;;;;;12.07;1.40;;;20.10;55.20;;;;;;6189338;23;20526;-70
2021/11/27 06:11:00;;;;;;;2.13;1.00;;;20.10;55.20;;;;;;6215494;23;20079;-70
2021/11/27 06:13:26;;;;;;;3.00;1.05;;;20.10;55.20;;;;;;6216057;23;20057;-70
2021/11/27 06:15:51;;;;;;;2.67;1.10;;;20.10;55.20;;;;;;6215652;23;20004;-70
2021/11/27 06:18:17;;;;;;;3.53;0.93;;;20.10;55.20;;;;;;6215835;23;20007;-70
2021/11/27 06:20:42;;;;;;;2.80;0.80;;;20.10;55.20;;;;;;6215668;23;20478;-70
2021/11/27 06:23:08;;;;;;;2.90;1.10;;;20.10;55.20;;;;;;6215722;23;20028;-70
2021/11/27 06:25:34;;;;;;;3.42;1.05;;;20.10;55.20;;;;;;6189072;23;20350;-70
2021/11/27 06:27:59;;;;;;;2.20;0.95;;;20.10;55.20;;;;;;6215537;23;20016;-70
2021/11/27 06:30:25;;;;;;;4.00;1.30;;;20.10;55.10;;;;;;6164370;23;20356;-70
2021/11/27 06:32:51;;;;;;;3.55;1.30;;;20.10;55.10;;;;;;6164442;23;20005;-70
2021/11/27 06:35:17;;;;;;;2.20;0.95;;;20.10;55.20;;;;;;6189292;23;20004;-70
2021/11/27 06:37:42;;;;;;;2.10;0.85;;;20.10;55.20;;;;;;6215388;23;20007;-70
2021/11/27 06:40:09;;;;;;;2.63;1.05;;;20.10;55.20;;;;;;6188786;23;20000;-70
2021/11/27 06:42:35;;;;;;;2.50;0.98;;;20.10;55.20;;;;;;6164423;23;20007;-70
2021/11/27 06:45:00;;;;;;;4.30;1.00;;;20.10;55.10;;;;;;6188077;23;20000;-70
2021/11/27 06:47:28;;;;;;;1.73;1.00;;;20.10;55.10;;;;;;6187041;23;20015;-70
2021/11/27 06:49:53;;;;;;;2.47;0.93;;;20.10;55.10;;;;;;6189704;23;20068;-70
2021/11/27 06:52:19;;;;;;;2.00;0.90;;;20.10;55.10;;;;;;6189533;23;20051;-69
2021/11/27 06:54:45;;;;;;;2.55;1.17;;;20.10;55.10;;;;;;6189151;23;20039;-70
2021/11/27 06:57:10;;;;;;;1.63;0.90;;;20.10;55.10;;;;;;6189336;23;20328;-70
2021/11/27 06:59:37;;;;;;;2.83;1.00;;;20.10;55.10;;;;;;6164481;23;20044;-70
2021/11/27 07:02:03;;;;;;;2.05;0.80;;;20.10;55.60;;;;;;6188979;23;20031;-70
2021/11/27 07:04:28;;;;;;;4.88;0.98;;;20.10;55.10;;;;;;6215387;23;20455;-70
2021/11/27 07:06:54;;;;;;;2.00;1.00;;;20.10;55.10;;;;;;6215445;23;20004;-70
2021/11/27 07:09:20;;;;;;;2.75;0.90;;;20.10;55.10;;;;;;6188407;23;20031;-69
2021/11/27 07:11:45;;;;;;;2.80;0.90;;;20.10;55.10;;;;;;6188855;23;20079;-70
2021/11/27 07:14:11;;;;;;;2.45;0.90;;;20.10;55.10;;;;;;6215330;23;20005;-70
2021/11/27 07:16:37;;;;;;;2.97;1.13;;;20.10;55.00;;;;;;6164081;23;20035;-70
2021/11/27 07:19:03;;;;;;;1.65;1.08;;;20.10;55.00;;;;;;6188557;23;20005;-70
2021/11/27 07:21:29;;;;;;;2.53;1.05;;;20.10;55.00;;;;;;6188999;23;20435;-69
2021/11/27 07:23:54;;;;;;;1.33;0.88;;;20.10;55.00;;;;;;6188219;23;20000;-70
2021/11/27 07:26:20;;;;;;;2.70;0.90;;;20.10;55.00;;;;;;6188583;23;20047;-70
2021/11/27 07:28:46;;;;;;;1.90;1.00;;;20.10;55.00;;;;;;6188710;23;20001;-70
2021/11/27 07:31:12;;;;;;;1.98;1.00;;;20.10;55.00;;;;;;6164019;23;20059;-70
2021/11/27 07:33:37;;;;;;;2.22;0.80;;;20.10;55.00;;;;;;6188721;23;20000;-70
2021/11/27 07:36:04;;;;;;;1.60;1.00;;;20.20;55.10;;;;;;6188526;23;20455;-70
2021/11/27 07:38:30;;;;;;;2.58;1.13;;;20.10;55.00;;;;;;6214652;23;20011;-69
2021/11/27 07:40:56;;;;;;;1.85;0.95;;;20.10;55.90;;;;;;6188301;23;20072;-70
2021/11/27 07:43:22;;;;;;;2.28;1.10;;;20.10;55.00;;;;;;6214972;23;20050;-70
2021/11/27 07:45:47;;;;;;;2.65;1.02;;;20.10;55.00;;;;;;6214780;23;20005;-70
2021/11/27 07:48:13;;;;;;;2.03;1.20;;;20.10;54.90;;;;;;6188618;23;20059;-70
2021/11/27 07:50:38;;;;;;;2.10;1.10;;;20.10;55.00;;;;;;6188712;23;20328;-70
2021/11/27 07:53:04;;;;;;;2.88;0.90;;;20.10;54.90;;;;;;6187807;23;20001;-70
2021/11/27 07:55:30;;;;;;;5.22;0.75;;;20.10;54.90;;;;;;6215053;23;20008;-70
2021/11/27 07:57:55;;;;;;;3.05;0.90;;;20.10;55.00;;;;;;6214604;23;20055;-70
2021/11/27 08:00:21;;;;;;;2.08;0.75;;;20.10;54.90;;;;;;6214860;23;19997;-70
2021/11/27 08:02:47;;;;;;;4.10;1.10;;;20.10;54.90;;;;;;6188430;23;20005;-70
2021/11/27 08:05:12;;;;;;;3.30;1.10;;;20.10;54.90;;;;;;6214685;23;20043;-70
2021/11/27 08:07:38;;;;;;;2.33;0.95;;;20.10;54.90;;;;;;6163219;23;20001;-70
2021/11/27 08:10:05;;;;;;;2.78;1.00;;;20.10;54.90;;;;;;6188232;23;20005;-70
2021/11/27 08:12:31;;;;;;;2.33;1.00;;;20.10;54.90;;;;;;6188189;23;20340;-70
2021/11/27 08:14:57;;;;;;;2.25;1.00;;;20.10;54.90;;;;;;6163363;23;20004;-70
2021/11/27 08:17:22;;;;;;;4.78;1.15;;;20.10;54.80;;;;;;6188125;23;20024;-70
2021/11/27 08:19:49;;;;;;;2.17;0.80;;;20.10;54.90;;;;;;6188021;23;20029;-70
2021/11/27 08:22:14;;;;;;;1.52;0.73;;;20.10;54.80;;;;;;6187589;23;20103;-70
2021/11/27 08:24:40;;;;;;;2.30;0.93;;;20.10;54.80;;;;;;6188264;23;20361;-70
2021/11/27 08:27:05;;;;;;;3.38;1.40;;;20.10;54.90;;;;;;6187969;23;20043;-70
2021/11/27 08:29:31;;;;;;;4.13;1.42;;;20.10;54.80;;;;;;6214746;23;20011;-70
2021/11/27 08:31:57;;;;;;;2.22;0.82;;;20.10;54.80;;;;;;6214488;23;20004;-70
2021/11/27 08:34:23;;;;;;;2.28;1.05;;;20.10;54.80;;;;;;6214537;23;20000;-70
2021/11/27 08:36:49;;;;;;;2.33;1.10;;;20.10;54.70;;;;;;6214145;23;20004;-70
2021/11/27 08:39:15;;;;;;;4.05;1.33;;;20.10;54.80;;;;;;6188026;23;20333;-70
2021/11/27 08:41:42;;;;;;;2.25;1.10;;;20.10;54.80;;;;;;6214516;23;20001;-70
2021/11/27 08:44:08;;;;;;;2.65;1.05;;;20.10;54.70;;;;;;6214475;23;20464;-70
2021/11/27 08:46:33;;;;;;;2.45;0.90;;;20.10;54.80;;;;;;6214473;23;19996;-70
2021/11/27 08:48:59;;;;;;;3.30;1.13;;;20.10;54.70;;;;;;6188002;23;20001;-70
2021/11/27 08:51:25;;;;;;;1.88;0.98;;;20.10;54.70;;;;;;6187830;23;20001;-70
2021/11/27 08:53:50;;;;;;;3.58;1.13;;;20.10;54.70;;;;;;6188017;23;19996;-70
2021/11/27 08:56:16;;;;;;;2.67;0.95;;;20.10;54.70;;;;;;6187828;23;19996;-70
2021/11/27 08:58:42;;;;;;;9.52;1.30;;;20.10;54.70;;;;;;6188120;23;20336;-74
2021/11/27 09:01:08;;;;;;;2.75;1.15;;;20.10;54.80;;;;;;6185258;23;20001;-75
2021/11/27 09:03:34;;;;;;;3.17;1.10;;;20.10;54.90;;;;;;6161000;23;20440;-71
2021/11/27 09:06:03;;;;;;;4.28;1.38;;;20.10;54.60;;;;;;6184903;23;20007;-73
2021/11/27 09:08:28;;;;;;;2.08;1.00;;;20.10;54.60;;;;;;6214206;23;20008;-73
2021/11/27 09:10:54;;;;;;;2.67;0.98;;;20.20;54.80;;;;;;6214740;23;20005;-72
2021/11/27 09:13:20;;;;;;;1.85;1.00;;;20.20;54.70;;;;;;6214416;23;20051;-73
2021/11/27 09:15:45;;;;;;;2.67;1.13;;;20.20;54.70;;;;;;6208435;23;20008;-72
2021/11/27 09:18:11;;;;;;;2.20;0.95;;;20.20;54.70;;;;;;6208618;23;20008;-73
2021/11/27 09:20:37;;;;;;;2.30;0.90;;;20.20;54.70;;;;;;6182651;23;20370;-73
2021/11/27 09:23:03;;;;;;;2.35;1.05;;;20.20;54.70;;;;;;6214649;23;20000;-74
2021/11/27 09:25:29;;;;;;;2.28;0.93;;;20.20;54.70;;;;;;6187876;23;19996;-73
2021/11/27 09:27:56;;;;;;;1.45;0.88;;;20.20;54.70;;;;;;6210756;23;20024;-74
2021/11/27 09:30:21;;;;;;;2.00;1.20;;;20.20;54.60;;;;;;6184130;23;20011;-73
2021/11/27 09:32:47;;;;;;;3.50;1.20;;;20.20;54.70;;;;;;6159942;23;20091;-73
2021/11/27 09:35:13;;;;;;;5.50;1.10;;;20.20;54.60;;;;;;6183230;23;20009;-73
2021/11/27 09:37:39;;;;;;;1.67;0.90;;;20.20;54.50;;;;;;6211398;23;20400;-72
2021/11/27 09:40:05;;;;;;;2.92;1.15;;;20.20;54.50;;;;;;6213235;23;20001;-69
2021/11/27 09:42:33;;;;;;;3.47;1.40;;;20.20;54.20;;;;;;6214744;23;20012;-69
2021/11/27 09:44:59;;;;;;;2.88;1.10;;;20.20;54.40;;;;;;6164648;23;20071;-69
2021/11/27 09:47:24;;;;;;;2.55;0.80;;;20.20;54.30;;;;;;6163903;23;20082;-69
2021/11/27 09:49:50;;;;;;;1.95;0.85;;;20.20;54.40;;;;;;6163496;23;20398;-69
2021/11/27 09:52:15;;;;;;;1.98;0.95;;;20.20;54.40;;;;;;6214948;23;20019;-69
2021/11/27 09:54:41;;;;;;;1.45;0.82;;;20.20;54.30;;;;;;6214324;23;20014;-69
2021/11/27 09:57:09;;;;;;;3.10;0.80;;;20.20;54.40;;;;;;6214165;23;20390;-69
2021/11/27 09:59:40;;;;;;;2.08;0.88;;;20.20;54.30;;;;;;6188611;23;20004;-68
2021/11/27 10:02:07;;;;;;;2.15;1.02;;;20.20;54.30;;;;;;6187773;23;19996;-68
2021/11/27 10:04:33;;;;;;;1.48;1.05;;;20.20;54.30;;;;;;6187963;23;20115;-68
2021/11/27 10:06:59;;;;;;;2.45;1.00;;;20.20;54.30;;;;;;6189779;23;20072;-68
2021/11/27 10:09:25;;;;;;;1.98;0.82;;;20.20;54.30;;;;;;6214813;23;20000;-68
2021/11/27 10:11:52;;;;;;;2.28;0.80;;;20.10;54.20;;;;;;6188466;23;20005;-68
2021/11/27 10:14:18;;;;;;;2.10;1.00;;;20.20;54.30;;;;;;6163642;23;20008;-68
2021/11/27 10:16:59;;;;;;;1.52;0.77;;;20.20;54.20;;;;;;6187959;23;20355;-68
2021/11/27 10:19:40;;;;;;;0.75;0.65;;;20.20;54.10;;;;;;6214511;23;20039;-68
2021/11/27 10:22:06;;;;;;;2.58;0.82;;;20.10;54.10;;;;;;6214923;23;20084;-69
2021/11/27 10:24:32;;;;;;;1.45;0.95;;;20.10;54.20;;;;;;6188999;23;20036;-68
2021/11/27 10:27:00;;;;;;;4.55;1.35;;;20.10;54.10;;;;;;6189343;23;20017;-68
2021/11/27 10:29:29;;;;;;;4.20;1.50;;;20.10;54.20;;;;;;6189600;23;20001;-68
2021/11/27 10:32:15;;;;;;;6.50;1.45;;;20.10;54.10;;;;;;6164991;23;20012;-68
2021/11/27 10:34:50;;;;;;;6.40;1.88;;;20.20;54.00;;;;;;6214704;23;20080;-69
2021/11/27 10:37:29;;;;;;;4.68;1.70;;;20.20;54.20;;;;;;6163698;23;20000;-67
2021/11/27 10:39:56;;;;;;;8.07;2.15;;;20.20;54.10;;;;;;6188388;23;20075;-69
2021/11/27 10:42:22;;;;;;;4.88;1.75;;;20.10;54.10;;;;;;6163425;23;20007;-68
2021/11/27 10:44:51;;;;;;;6.90;1.70;;;20.10;54.10;;;;;;6214421;23;20075;-67
2021/11/27 10:47:17;;;;;;;6.45;1.92;;;20.10;54.10;;;;;;6188170;23;20028;-67
2021/11/27 10:49:44;;;;;;;4.40;1.23;;;20.10;54.10;;;;;;6163254;23;20001;-67
2021/11/27 10:52:11;;;;;;;6.53;1.50;;;20.20;54.10;;;;;;6163313;23;20005;-67
2021/11/27 10:54:46;;;;;;;3.45;1.55;;;20.10;54.10;;;;;;6163354;23;20066;-67
2021/11/27 10:57:26;;;;;;;3.20;1.10;;;20.20;54.10;;;;;;6214359;23;20088;-67
2021/11/27 10:59:56;;;;;;;3.92;1.60;;;20.20;54.00;;;;;;6214519;23;20047;-67
2021/11/27 11:02:25;;;;;;;4.57;1.50;;;20.10;54.10;;;;;;6188572;23;19997;-67
2021/11/27 11:05:14;;;;;;;6.20;1.40;;;20.10;54.00;;;;;;6188564;23;20007;-67
2021/11/27 11:07:41;;;;;;;4.68;1.50;;;20.20;54.00;;;;;;6165225;23;20495;-67
2021/11/27 11:10:12;;;;;;;4.45;1.58;;;20.10;54.00;;;;;;6187974;23;20007;-67
2021/11/27 11:12:55;;;;;;;5.22;1.58;;;20.10;54.10;;;;;;6214195;23;20031;-67
2021/11/27 11:15:39;;;;;;;2.75;1.40;;;20.20;54.10;;;;;;6213776;23;20079;-67
2021/11/27 11:18:18;;;;;;;7.32;2.17;;;20.20;53.90;;;;;;6214732;23;20008;-67
2021/11/27 11:21:05;;;;;;;7.00;1.90;;;20.00;52.70;;;;;;6186857;23;20055;-68
2021/11/27 11:23:33;;;;;;;6.18;1.60;;;19.80;51.90;;;;;;6188159;23;20001;-68
2021/11/27 11:26:20;;;;;;;5.60;1.85;;;19.50;52.50;;;;;;6214221;23;20001;-68
2021/11/27 11:28:54;;;;;;;5.95;1.70;;;19.20;51.50;;;;;;6213801;23;20020;-68
2021/11/27 11:31:28;;;;;;;6.95;1.98;;;19.00;51.30;;;;;;6187123;23;20076;-67
2021/11/27 11:33:56;;;;;;;6.65;1.95;;;18.70;51.40;;;;;;6187471;23;20008;-68
2021/11/27 11:36:22;;;;;;;4.47;1.40;;;18.50;51.00;;;;;;6187249;23;20047;-65
2021/11/27 11:38:49;;;;;;;8.15;1.60;;;18.40;51.00;;;;;;6213662;23;20008;-66
2021/11/27 11:41:16;;;;;;;4.88;1.80;;;18.30;51.00;;;;;;6187195;23;20007;-65
2021/11/27 11:43:42;;;;;;;3.58;1.65;;;18.20;51.80;;;;;;6186541;23;20012;-66
2021/11/27 11:46:08;;;;;;;5.93;1.50;;;18.40;52.20;;;;;;6187354;23;20001;-66
2021/11/27 11:48:33;;;;;;;6.28;1.52;;;18.40;52.20;;;;;;6186941;23;20011;-65
2021/11/27 11:51:13;;;;;;;3.20;1.35;;;18.60;52.20;;;;;;6213640;23;20088;-65
2021/11/27 11:53:47;;;;;;;5.40;1.50;;;18.70;52.20;;;;;;6164772;23;20006;-65
2021/11/27 11:56:12;;;;;;;5.22;1.38;;;18.70;53.10;;;;;;6187307;23;20001;-66
2021/11/27 11:58:41;;;;;;;5.32;1.40;;;18.70;52.10;;;;;;6212995;23;20356;-66
2021/11/27 12:01:18;;;;;;;4.60;1.25;;;18.80;52.10;;;;;;6213585;23;20062;-66
2021/11/27 12:03:44;;;;;;;4.57;1.25;;;18.80;52.10;;;;;;6186844;23;20621;-66
2021/11/27 12:06:25;;;;;;;5.28;1.20;;;18.80;52.10;;;;;;6162311;23;20000;-66
2021/11/27 12:08:51;;;;;;;4.65;1.20;;;18.80;52.20;;;;;;6186870;23;20011;-66
2021/11/27 12:11:45;;;;;;;2.78;1.15;;;18.90;52.30;;;;;;6213634;23;20060;-66
2021/11/27 12:14:24;;;;;;;1.35;0.85;;;18.90;52.20;;;;;;6213451;23;19996;-66
2021/11/27 12:17:19;;;;;;;6.72;1.77;;;18.90;52.30;;;;;;6214496;23;20004;-69
2021/11/27 12:19:52;;;;;;;4.90;1.23;;;18.90;52.60;;;;;;6185396;23;20005;-70
2021/11/27 12:22:39;;;;;;;3.85;1.25;;;18.90;52.80;;;;;;6187645;23;20395;-71
2021/11/27 12:25:14;;;;;;;4.35;1.20;;;18.90;52.90;;;;;;6214972;23;20001;-71
2021/11/27 12:27:59;;;;;;;4.30;1.23;;;18.90;53.00;;;;;;6214220;23;20083;-71
2021/11/27 12:30:25;;;;;;;3.60;1.30;;;19.00;53.10;;;;;;6215008;23;20004;-71
2021/11/27 12:32:51;;;;;;;4.50;1.15;;;19.00;53.10;;;;;;6163605;23;20436;-71
2021/11/27 12:35:30;;;;;;;4.00;1.40;;;19.10;53.10;;;;;;6188677;23;20027;-74
2021/11/27 12:38:08;;;;;;;4.22;0.95;;;19.10;53.10;;;;;;6214805;23;20063;-76
2021/11/27 12:40:35;;;;;;;3.22;0.93;;;19.10;53.10;;;;;;6214663;23;19996;-74
2021/11/27 12:43:14;;;;;;;2.92;1.10;;;19.10;53.20;;;;;;6187969;23;19997;-74
2021/11/27 12:45:41;;;;;;;2.92;0.90;;;19.20;53.30;;;;;;6188181;23;19997;-75
2021/11/27 12:48:28;;;;;;;2.72;0.98;;;19.20;53.30;;;;;;6215024;23;20001;-75